sensor_id;sensor_type;location;lat;lon;timestamp;P1;durP1;ratioP1;P2;durP2;ratioP2
58294;SDS011;45705;55.592;37.460;2023-11-25T00:00:25;45.42;;;20.52;;
58294;SDS011;45705;55.592;37.460;2023-11-25T00:02:53;45.22;;;20.80;;
58294;SDS011;45705;55.592;37.460;2023-11-25T00:05:20;47.92;;;20.63;;
58294;SDS011;45705;55.592;37.460;2023-11-25T00:07:46;46.70;;;21.13;;
58294;SDS011;45705;55.592;37.460;2023-11-25T00:10:12;48.83;;;21.13;;
58294;SDS011;45705;55.592;37.460;2023-11-25T00:12:38;46.45;;;21.60;;
58294;SDS011;45705;55.592;37.460;2023-11-25T00:15:04;38.85;;;17.23;;
58294;SDS011;45705;55.592;37.460;2023-11-25T00:17:32;37.28;;;18.25;;
58294;SDS011;45705;55.592;37.460;2023-11-25T00:19:59;41.05;;;18.90;;
58294;SDS011;45705;55.592;37.460;2023-11-25T00:22:25;43.38;;;19.75;;
58294;SDS011;45705;55.592;37.460;2023-11-25T00:24:51;35.50;;;16.15;;
58294;SDS011;45705;55.592;37.460;2023-11-25T00:27:18;37.75;;;18.67;;
58294;SDS011;45705;55.592;37.460;2023-11-25T00:29:45;40.65;;;19.38;;
58294;SDS011;45705;55.592;37.460;2023-11-25T00:32:11;38.03;;;18.10;;
58294;SDS011;45705;55.592;37.460;2023-11-25T00:34:37;38.10;;;19.45;;
58294;SDS011;45705;55.592;37.460;2023-11-25T00:37:03;36.30;;;16.85;;
58294;SDS011;45705;55.592;37.460;2023-11-25T00:42:05;38.17;;;18.60;;
58294;SDS011;45705;55.592;37.460;2023-11-25T00:44:31;40.85;;;16.52;;
58294;SDS011;45705;55.592;37.460;2023-11-25T00:46:57;36.58;;;17.30;;
58294;SDS011;45705;55.592;37.460;2023-11-25T00:49:22;35.47;;;17.00;;
58294;SDS011;45705;55.592;37.460;2023-11-25T00:51:48;35.67;;;15.98;;
58294;SDS011;45705;55.592;37.460;2023-11-25T00:54:15;37.15;;;17.00;;
58294;SDS011;45705;55.592;37.460;2023-11-25T00:56:42;38.13;;;17.90;;
58294;SDS011;45705;55.592;37.460;2023-11-25T00:59:08;34.63;;;17.40;;
58294;SDS011;45705;55.592;37.460;2023-11-25T01:01:34;30.88;;;16.30;;
58294;SDS011;45705;55.592;37.460;2023-11-25T01:03:59;34.33;;;15.63;;
58294;SDS011;45705;55.592;37.460;2023-11-25T01:06:25;37.00;;;17.10;;
58294;SDS011;45705;55.592;37.460;2023-11-25T01:08:51;36.75;;;16.98;;
58294;SDS011;45705;55.592;37.460;2023-11-25T01:11:17;32.17;;;15.65;;
58294;SDS011;45705;55.592;37.460;2023-11-25T01:13:42;39.03;;;17.00;;
58294;SDS011;45705;55.592;37.460;2023-11-25T01:16:15;39.53;;;15.98;;
58294;SDS011;45705;55.592;37.460;2023-11-25T01:18:42;32.22;;;17.27;;
58294;SDS011;45705;55.592;37.460;2023-11-25T01:21:08;37.35;;;17.92;;
58294;SDS011;45705;55.592;37.460;2023-11-25T01:23:35;35.10;;;16.65;;
58294;SDS011;45705;55.592;37.460;2023-11-25T01:26:01;35.80;;;16.30;;
58294;SDS011;45705;55.592;37.460;2023-11-25T01:28:28;29.48;;;12.18;;
58294;SDS011;45705;55.592;37.460;2023-11-25T01:30:55;38.55;;;18.30;;
58294;SDS011;45705;55.592;37.460;2023-11-25T01:33:21;34.58;;;16.55;;
58294;SDS011;45705;55.592;37.460;2023-11-25T01:35:47;36.92;;;17.08;;
58294;SDS011;45705;55.592;37.460;2023-11-25T01:38:12;33.30;;;15.77;;
58294;SDS011;45705;55.592;37.460;2023-11-25T01:40:39;33.40;;;16.23;;
58294;SDS011;45705;55.592;37.460;2023-11-25T01:43:09;35.58;;;16.13;;
58294;SDS011;45705;55.592;37.460;2023-11-25T01:45:36;35.13;;;17.98;;
58294;SDS011;45705;55.592;37.460;2023-11-25T01:48:03;35.95;;;17.60;;
58294;SDS011;45705;55.592;37.460;2023-11-25T01:50:30;33.42;;;15.02;;
58294;SDS011;45705;55.592;37.460;2023-11-25T01:53:02;37.40;;;17.50;;
58294;SDS011;45705;55.592;37.460;2023-11-25T01:55:32;32.28;;;16.58;;
58294;SDS011;45705;55.592;37.460;2023-11-25T01:57:59;37.75;;;17.58;;
58294;SDS011;45705;55.592;37.460;2023-11-25T02:00:25;39.65;;;17.20;;
58294;SDS011;45705;55.592;37.460;2023-11-25T02:02:53;33.80;;;17.40;;
58294;SDS011;45705;55.592;37.460;2023-11-25T02:05:19;36.97;;;17.23;;
58294;SDS011;45705;55.592;37.460;2023-11-25T02:07:44;31.65;;;15.15;;
58294;SDS011;45705;55.592;37.460;2023-11-25T02:10:10;37.58;;;17.02;;
58294;SDS011;45705;55.592;37.460;2023-11-25T02:12:37;37.15;;;15.98;;
58294;SDS011;45705;55.592;37.460;2023-11-25T02:15:06;35.30;;;14.98;;
58294;SDS011;45705;55.592;37.460;2023-11-25T02:17:37;32.90;;;15.48;;
58294;SDS011;45705;55.592;37.460;2023-11-25T02:20:06;33.20;;;15.63;;
58294;SDS011;45705;55.592;37.460;2023-11-25T02:22:34;33.90;;;15.32;;
58294;SDS011;45705;55.592;37.460;2023-11-25T02:25:02;35.10;;;15.75;;
58294;SDS011;45705;55.592;37.460;2023-11-25T02:27:30;33.25;;;16.40;;
58294;SDS011;45705;55.592;37.460;2023-11-25T02:29:55;31.08;;;14.77;;
58294;SDS011;45705;55.592;37.460;2023-11-25T02:32:21;32.53;;;15.77;;
58294;SDS011;45705;55.592;37.460;2023-11-25T02:34:47;35.33;;;14.82;;
58294;SDS011;45705;55.592;37.460;2023-11-25T02:37:14;31.02;;;15.38;;
58294;SDS011;45705;55.592;37.460;2023-11-25T02:39:41;34.22;;;16.27;;
58294;SDS011;45705;55.592;37.460;2023-11-25T02:42:07;31.45;;;15.18;;
58294;SDS011;45705;55.592;37.460;2023-11-25T02:44:35;34.03;;;16.45;;
58294;SDS011;45705;55.592;37.460;2023-11-25T02:47:04;32.95;;;16.42;;
58294;SDS011;45705;55.592;37.460;2023-11-25T02:49:30;34.67;;;16.15;;
58294;SDS011;45705;55.592;37.460;2023-11-25T02:51:56;33.08;;;16.15;;
58294;SDS011;45705;55.592;37.460;2023-11-25T02:54:24;36.75;;;15.00;;
58294;SDS011;45705;55.592;37.460;2023-11-25T02:56:50;36.33;;;16.27;;
58294;SDS011;45705;55.592;37.460;2023-11-25T02:59:16;32.10;;;15.88;;
58294;SDS011;45705;55.592;37.460;2023-11-25T03:01:45;33.00;;;15.50;;
58294;SDS011;45705;55.592;37.460;2023-11-25T03:04:15;38.17;;;16.95;;
58294;SDS011;45705;55.592;37.460;2023-11-25T03:06:42;35.30;;;16.85;;
58294;SDS011;45705;55.592;37.460;2023-11-25T03:09:08;35.53;;;17.35;;
58294;SDS011;45705;55.592;37.460;2023-11-25T03:11:36;38.20;;;17.85;;
58294;SDS011;45705;55.592;37.460;2023-11-25T03:14:02;35.47;;;17.52;;
58294;SDS011;45705;55.592;37.460;2023-11-25T03:16:28;36.38;;;16.83;;
58294;SDS011;45705;55.592;37.460;2023-11-25T03:18:54;36.10;;;17.00;;
58294;SDS011;45705;55.592;37.460;2023-11-25T03:21:22;35.28;;;17.63;;
58294;SDS011;45705;55.592;37.460;2023-11-25T03:23:48;34.63;;;16.75;;
58294;SDS011;45705;55.592;37.460;2023-11-25T03:26:14;35.38;;;16.00;;
58294;SDS011;45705;55.592;37.460;2023-11-25T03:28:40;32.92;;;16.23;;
58294;SDS011;45705;55.592;37.460;2023-11-25T03:31:06;30.67;;;15.50;;
58294;SDS011;45705;55.592;37.460;2023-11-25T03:33:35;35.63;;;16.23;;
58294;SDS011;45705;55.592;37.460;2023-11-25T03:36:03;39.63;;;17.70;;
58294;SDS011;45705;55.592;37.460;2023-11-25T03:38:29;37.92;;;17.08;;
58294;SDS011;45705;55.592;37.460;2023-11-25T03:40:59;35.60;;;16.52;;
58294;SDS011;45705;55.592;37.460;2023-11-25T03:43:24;35.70;;;15.55;;
58294;SDS011;45705;55.592;37.460;2023-11-25T03:45:50;38.85;;;17.58;;
58294;SDS011;45705;55.592;37.460;2023-11-25T03:48:16;42.63;;;18.60;;
58294;SDS011;45705;55.592;37.460;2023-11-25T03:50:42;36.90;;;17.65;;
58294;SDS011;45705;55.592;37.460;2023-11-25T03:55:37;38.05;;;17.00;;
58294;SDS011;45705;55.592;37.460;2023-11-25T03:58:03;40.25;;;18.77;;
58294;SDS011;45705;55.592;37.460;2023-11-25T04:00:30;44.92;;;19.25;;
58294;SDS011;45705;55.592;37.460;2023-11-25T04:02:58;36.20;;;17.05;;
58294;SDS011;45705;55.592;37.460;2023-11-25T04:05:24;31.73;;;15.63;;
58294;SDS011;45705;55.592;37.460;2023-11-25T04:07:50;39.90;;;17.65;;
58294;SDS011;45705;55.592;37.460;2023-11-25T04:10:18;34.97;;;16.88;;
58294;SDS011;45705;55.592;37.460;2023-11-25T04:12:45;38.38;;;17.77;;
58294;SDS011;45705;55.592;37.460;2023-11-25T04:15:13;38.15;;;19.05;;
58294;SDS011;45705;55.592;37.460;2023-11-25T04:17:45;34.42;;;16.42;;
58294;SDS011;45705;55.592;37.460;2023-11-25T04:20:14;30.55;;;13.93;;
58294;SDS011;45705;55.592;37.460;2023-11-25T04:22:43;36.78;;;16.88;;
58294;SDS011;45705;55.592;37.460;2023-11-25T04:25:11;31.08;;;14.70;;
58294;SDS011;45705;55.592;37.460;2023-11-25T04:27:42;33.08;;;17.67;;
58294;SDS011;45705;55.592;37.460;2023-11-25T04:30:09;37.63;;;17.52;;
58294;SDS011;45705;55.592;37.460;2023-11-25T04:32:36;37.97;;;17.83;;
58294;SDS011;45705;55.592;37.460;2023-11-25T04:35:03;31.55;;;15.55;;
58294;SDS011;45705;55.592;37.460;2023-11-25T04:37:35;42.47;;;18.67;;
58294;SDS011;45705;55.592;37.460;2023-11-25T04:40:04;41.95;;;19.35;;
58294;SDS011;45705;55.592;37.460;2023-11-25T04:42:32;32.60;;;17.33;;
58294;SDS011;45705;55.592;37.460;2023-11-25T04:44:59;39.97;;;17.42;;
58294;SDS011;45705;55.592;37.460;2023-11-25T04:47:25;41.42;;;20.70;;
58294;SDS011;45705;55.592;37.460;2023-11-25T04:49:52;45.10;;;20.73;;
58294;SDS011;45705;55.592;37.460;2023-11-25T04:52:18;43.95;;;20.25;;
58294;SDS011;45705;55.592;37.460;2023-11-25T04:54:44;45.60;;;22.17;;
58294;SDS011;45705;55.592;37.460;2023-11-25T04:57:12;38.67;;;18.88;;
58294;SDS011;45705;55.592;37.460;2023-11-25T04:59:38;36.40;;;17.20;;
58294;SDS011;45705;55.592;37.460;2023-11-25T05:02:04;39.38;;;17.33;;
58294;SDS011;45705;55.592;37.460;2023-11-25T05:04:30;45.38;;;21.67;;
58294;SDS011;45705;55.592;37.460;2023-11-25T05:06:56;33.30;;;17.83;;
58294;SDS011;45705;55.592;37.460;2023-11-25T05:09:22;40.13;;;19.90;;
58294;SDS011;45705;55.592;37.460;2023-11-25T05:11:52;35.97;;;18.48;;
58294;SDS011;45705;55.592;37.460;2023-11-25T05:14:19;38.25;;;17.27;;
58294;SDS011;45705;55.592;37.460;2023-11-25T05:16:45;35.97;;;15.43;;
58294;SDS011;45705;55.592;37.460;2023-11-25T05:19:12;37.97;;;17.27;;
58294;SDS011;45705;55.592;37.460;2023-11-25T05:21:38;37.42;;;17.73;;
58294;SDS011;45705;55.592;37.460;2023-11-25T05:24:04;38.65;;;17.23;;
58294;SDS011;45705;55.592;37.460;2023-11-25T05:26:30;40.88;;;18.58;;
58294;SDS011;45705;55.592;37.460;2023-11-25T05:28:56;35.95;;;17.58;;
58294;SDS011;45705;55.592;37.460;2023-11-25T05:31:23;34.63;;;17.35;;
58294;SDS011;45705;55.592;37.460;2023-11-25T05:33:49;36.65;;;17.27;;
58294;SDS011;45705;55.592;37.460;2023-11-25T05:36:15;36.38;;;17.38;;
58294;SDS011;45705;55.592;37.460;2023-11-25T05:38:40;35.60;;;17.48;;
58294;SDS011;45705;55.592;37.460;2023-11-25T05:41:06;37.10;;;17.80;;
58294;SDS011;45705;55.592;37.460;2023-11-25T05:43:34;35.50;;;17.45;;
58294;SDS011;45705;55.592;37.460;2023-11-25T05:46:00;36.25;;;17.15;;
58294;SDS011;45705;55.592;37.460;2023-11-25T05:48:26;37.83;;;17.45;;
58294;SDS011;45705;55.592;37.460;2023-11-25T05:50:53;32.80;;;16.30;;
58294;SDS011;45705;55.592;37.460;2023-11-25T05:53:18;34.92;;;17.17;;
58294;SDS011;45705;55.592;37.460;2023-11-25T05:55:44;35.38;;;16.40;;
58294;SDS011;45705;55.592;37.460;2023-11-25T05:58:10;32.95;;;17.23;;
58294;SDS011;45705;55.592;37.460;2023-11-25T06:00:35;33.70;;;14.75;;
58294;SDS011;45705;55.592;37.460;2023-11-25T06:03:01;25.83;;;13.35;;
58294;SDS011;45705;55.592;37.460;2023-11-25T06:05:27;36.28;;;15.68;;
58294;SDS011;45705;55.592;37.460;2023-11-25T06:07:53;33.22;;;16.90;;
58294;SDS011;45705;55.592;37.460;2023-11-25T06:10:19;30.75;;;14.93;;
58294;SDS011;45705;55.592;37.460;2023-11-25T06:12:45;36.03;;;16.33;;
58294;SDS011;45705;55.592;37.460;2023-11-25T06:15:11;34.28;;;16.83;;
58294;SDS011;45705;55.592;37.460;2023-11-25T06:17:38;31.83;;;16.02;;
58294;SDS011;45705;55.592;37.460;2023-11-25T06:20:04;33.50;;;16.80;;
58294;SDS011;45705;55.592;37.460;2023-11-25T06:22:30;30.40;;;14.88;;
58294;SDS011;45705;55.592;37.460;2023-11-25T06:24:56;27.35;;;15.27;;
58294;SDS011;45705;55.592;37.460;2023-11-25T06:27:24;31.42;;;14.90;;
58294;SDS011;45705;55.592;37.460;2023-11-25T06:29:50;32.15;;;15.20;;
58294;SDS011;45705;55.592;37.460;2023-11-25T06:32:16;32.67;;;16.20;;
58294;SDS011;45705;55.592;37.460;2023-11-25T06:34:43;29.67;;;15.57;;
58294;SDS011;45705;55.592;37.460;2023-11-25T06:37:08;27.83;;;14.55;;
58294;SDS011;45705;55.592;37.460;2023-11-25T06:39:34;33.20;;;15.27;;
58294;SDS011;45705;55.592;37.460;2023-11-25T06:42:00;29.25;;;14.50;;
58294;SDS011;45705;55.592;37.460;2023-11-25T06:44:27;28.65;;;14.30;;
58294;SDS011;45705;55.592;37.460;2023-11-25T06:46:53;25.95;;;12.98;;
58294;SDS011;45705;55.592;37.460;2023-11-25T06:49:18;29.27;;;14.90;;
58294;SDS011;45705;55.592;37.460;2023-11-25T06:51:44;27.25;;;13.43;;
58294;SDS011;45705;55.592;37.460;2023-11-25T06:54:10;27.27;;;12.90;;
58294;SDS011;45705;55.592;37.460;2023-11-25T06:56:36;28.80;;;13.82;;
58294;SDS011;45705;55.592;37.460;2023-11-25T06:59:05;29.30;;;14.68;;
58294;SDS011;45705;55.592;37.460;2023-11-25T07:01:32;36.15;;;15.93;;
58294;SDS011;45705;55.592;37.460;2023-11-25T07:03:58;32.03;;;15.23;;
58294;SDS011;45705;55.592;37.460;2023-11-25T07:06:24;32.47;;;15.15;;
58294;SDS011;45705;55.592;37.460;2023-11-25T07:08:50;33.88;;;16.70;;
58294;SDS011;45705;55.592;37.460;2023-11-25T07:11:17;35.47;;;16.90;;
58294;SDS011;45705;55.592;37.460;2023-11-25T07:13:43;31.95;;;15.30;;
58294;SDS011;45705;55.592;37.460;2023-11-25T07:16:09;31.85;;;16.30;;
58294;SDS011;45705;55.592;37.460;2023-11-25T07:18:37;37.90;;;17.10;;
58294;SDS011;45705;55.592;37.460;2023-11-25T07:21:10;32.28;;;16.30;;
58294;SDS011;45705;55.592;37.460;2023-11-25T07:23:39;31.85;;;16.83;;
58294;SDS011;45705;55.592;37.460;2023-11-25T07:26:06;33.72;;;16.58;;
58294;SDS011;45705;55.592;37.460;2023-11-25T07:28:32;36.65;;;17.20;;
58294;SDS011;45705;55.592;37.460;2023-11-25T07:30:59;35.97;;;17.33;;
58294;SDS011;45705;55.592;37.460;2023-11-25T07:33:25;36.17;;;17.67;;
58294;SDS011;45705;55.592;37.460;2023-11-25T07:35:51;39.15;;;18.35;;
58294;SDS011;45705;55.592;37.460;2023-11-25T07:38:17;37.10;;;17.95;;
58294;SDS011;45705;55.592;37.460;2023-11-25T07:40:43;36.70;;;17.63;;
58294;SDS011;45705;55.592;37.460;2023-11-25T07:43:09;36.72;;;18.60;;
58294;SDS011;45705;55.592;37.460;2023-11-25T07:45:34;35.30;;;17.10;;
58294;SDS011;45705;55.592;37.460;2023-11-25T07:48:00;37.25;;;17.50;;
58294;SDS011;45705;55.592;37.460;2023-11-25T07:50:26;34.40;;;17.40;;
58294;SDS011;45705;55.592;37.460;2023-11-25T07:52:52;38.25;;;18.05;;
58294;SDS011;45705;55.592;37.460;2023-11-25T07:55:18;33.42;;;17.25;;
58294;SDS011;45705;55.592;37.460;2023-11-25T07:57:44;33.40;;;17.10;;
58294;SDS011;45705;55.592;37.460;2023-11-25T08:00:12;38.50;;;17.48;;
58294;SDS011;45705;55.592;37.460;2023-11-25T08:02:44;37.90;;;17.45;;
58294;SDS011;45705;55.592;37.460;2023-11-25T08:05:11;37.42;;;17.92;;
58294;SDS011;45705;55.592;37.460;2023-11-25T08:07:37;35.35;;;17.52;;
58294;SDS011;45705;55.592;37.460;2023-11-25T08:10:03;40.15;;;17.48;;
58294;SDS011;45705;55.592;37.460;2023-11-25T08:12:30;32.25;;;15.80;;
58294;SDS011;45705;55.592;37.460;2023-11-25T08:14:56;29.27;;;15.43;;
58294;SDS011;45705;55.592;37.460;2023-11-25T08:17:22;26.92;;;15.20;;
58294;SDS011;45705;55.592;37.460;2023-11-25T08:19:48;35.92;;;16.60;;
58294;SDS011;45705;55.592;37.460;2023-11-25T08:22:15;32.72;;;16.25;;
58294;SDS011;45705;55.592;37.460;2023-11-25T08:24:42;32.53;;;15.77;;
58294;SDS011;45705;55.592;37.460;2023-11-25T08:27:08;35.60;;;16.42;;
58294;SDS011;45705;55.592;37.460;2023-11-25T08:29:33;37.67;;;18.30;;
58294;SDS011;45705;55.592;37.460;2023-11-25T08:32:00;36.97;;;17.33;;
58294;SDS011;45705;55.592;37.460;2023-11-25T08:34:26;36.10;;;17.88;;
58294;SDS011;45705;55.592;37.460;2023-11-25T08:36:52;33.67;;;16.08;;
58294;SDS011;45705;55.592;37.460;2023-11-25T08:39:21;32.90;;;17.48;;
58294;SDS011;45705;55.592;37.460;2023-11-25T08:41:52;35.80;;;16.77;;
58294;SDS011;45705;55.592;37.460;2023-11-25T08:44:19;30.13;;;17.38;;
58294;SDS011;45705;55.592;37.460;2023-11-25T08:46:45;33.40;;;16.42;;
58294;SDS011;45705;55.592;37.460;2023-11-25T08:49:12;35.33;;;16.20;;
58294;SDS011;45705;55.592;37.460;2023-11-25T08:51:44;34.83;;;17.52;;
58294;SDS011;45705;55.592;37.460;2023-11-25T08:54:15;32.05;;;16.42;;
58294;SDS011;45705;55.592;37.460;2023-11-25T08:56:45;34.47;;;16.42;;
58294;SDS011;45705;55.592;37.460;2023-11-25T08:59:12;35.80;;;17.08;;
58294;SDS011;45705;55.592;37.460;2023-11-25T09:01:44;33.10;;;17.13;;
58294;SDS011;45705;55.592;37.460;2023-11-25T09:04:12;32.40;;;15.98;;
58294;SDS011;45705;55.592;37.460;2023-11-25T09:06:42;31.65;;;16.27;;
58294;SDS011;45705;55.592;37.460;2023-11-25T09:09:11;35.53;;;16.75;;
58294;SDS011;45705;55.592;37.460;2023-11-25T09:11:38;30.10;;;15.50;;
58294;SDS011;45705;55.592;37.460;2023-11-25T09:14:04;32.60;;;16.20;;
58294;SDS011;45705;55.592;37.460;2023-11-25T09:16:31;32.60;;;16.55;;
58294;SDS011;45705;55.592;37.460;2023-11-25T09:18:57;31.90;;;16.15;;
58294;SDS011;45705;55.592;37.460;2023-11-25T09:21:23;29.58;;;15.82;;
58294;SDS011;45705;55.592;37.460;2023-11-25T09:23:49;31.02;;;16.50;;
58294;SDS011;45705;55.592;37.460;2023-11-25T09:26:15;30.50;;;16.48;;
58294;SDS011;45705;55.592;37.460;2023-11-25T09:28:41;35.25;;;17.13;;
58294;SDS011;45705;55.592;37.460;2023-11-25T09:31:07;37.40;;;17.00;;
58294;SDS011;45705;55.592;37.460;2023-11-25T09:33:33;35.30;;;17.95;;
58294;SDS011;45705;55.592;37.460;2023-11-25T09:35:59;32.50;;;15.88;;
58294;SDS011;45705;55.592;37.460;2023-11-25T09:38:25;28.30;;;15.57;;
58294;SDS011;45705;55.592;37.460;2023-11-25T09:40:52;35.28;;;17.08;;
58294;SDS011;45705;55.592;37.460;2023-11-25T09:43:18;30.17;;;16.02;;
58294;SDS011;45705;55.592;37.460;2023-11-25T09:45:47;37.85;;;17.38;;
58294;SDS011;45705;55.592;37.460;2023-11-25T09:48:15;32.65;;;17.25;;
58294;SDS011;45705;55.592;37.460;2023-11-25T09:50:40;34.33;;;16.67;;
58294;SDS011;45705;55.592;37.460;2023-11-25T09:53:09;31.75;;;16.17;;
58294;SDS011;45705;55.592;37.460;2023-11-25T09:55:38;36.90;;;18.15;;
58294;SDS011;45705;55.592;37.460;2023-11-25T09:58:07;39.88;;;19.33;;
58294;SDS011;45705;55.592;37.460;2023-11-25T10:00:33;33.05;;;17.42;;
58294;SDS011;45705;55.592;37.460;2023-11-25T10:03:03;35.22;;;18.75;;
58294;SDS011;45705;55.592;37.460;2023-11-25T10:05:33;32.50;;;16.45;;
58294;SDS011;45705;55.592;37.460;2023-11-25T10:07:59;38.63;;;17.90;;
58294;SDS011;45705;55.592;37.460;2023-11-25T10:10:25;35.53;;;17.58;;
58294;SDS011;45705;55.592;37.460;2023-11-25T10:12:54;34.75;;;18.10;;
58294;SDS011;45705;55.592;37.460;2023-11-25T10:15:20;31.38;;;16.60;;
58294;SDS011;45705;55.592;37.460;2023-11-25T10:17:50;35.75;;;16.85;;
58294;SDS011;45705;55.592;37.460;2023-11-25T10:20:16;31.77;;;18.13;;
58294;SDS011;45705;55.592;37.460;2023-11-25T10:25:12;36.60;;;16.90;;
58294;SDS011;45705;55.592;37.460;2023-11-25T10:27:38;39.83;;;17.92;;
58294;SDS011;45705;55.592;37.460;2023-11-25T10:30:05;37.50;;;16.80;;
58294;SDS011;45705;55.592;37.460;2023-11-25T10:32:34;33.58;;;16.95;;
58294;SDS011;45705;55.592;37.460;2023-11-25T10:35:00;33.65;;;17.63;;
58294;SDS011;45705;55.592;37.460;2023-11-25T10:37:26;37.40;;;17.23;;
58294;SDS011;45705;55.592;37.460;2023-11-25T10:39:52;34.17;;;16.75;;
58294;SDS011;45705;55.592;37.460;2023-11-25T10:42:18;33.25;;;16.13;;
58294;SDS011;45705;55.592;37.460;2023-11-25T10:44:46;33.17;;;17.60;;
58294;SDS011;45705;55.592;37.460;2023-11-25T10:47:29;33.92;;;17.35;;
58294;SDS011;45705;55.592;37.460;2023-11-25T10:49:59;35.50;;;18.48;;
58294;SDS011;45705;55.592;37.460;2023-11-25T10:52:31;38.17;;;19.55;;
58294;SDS011;45705;55.592;37.460;2023-11-25T10:55:06;33.13;;;18.27;;
58294;SDS011;45705;55.592;37.460;2023-11-25T10:57:34;36.22;;;18.02;;
58294;SDS011;45705;55.592;37.460;2023-11-25T11:00:01;31.27;;;16.55;;
58294;SDS011;45705;55.592;37.460;2023-11-25T11:02:40;36.70;;;18.08;;
58294;SDS011;45705;55.592;37.460;2023-11-25T11:05:09;34.72;;;17.95;;
58294;SDS011;45705;55.592;37.460;2023-11-25T11:07:38;41.20;;;19.92;;
58294;SDS011;45705;55.592;37.460;2023-11-25T11:10:10;38.03;;;19.50;;
58294;SDS011;45705;55.592;37.460;2023-11-25T11:12:37;36.53;;;17.95;;
58294;SDS011;45705;55.592;37.460;2023-11-25T11:15:06;34.80;;;18.55;;
58294;SDS011;45705;55.592;37.460;2023-11-25T11:20:36;34.30;;;17.75;;
58294;SDS011;45705;55.592;37.460;2023-11-25T11:23:06;35.55;;;17.35;;
58294;SDS011;45705;55.592;37.460;2023-11-25T11:25:34;34.80;;;17.60;;
58294;SDS011;45705;55.592;37.460;2023-11-25T11:33:34;38.40;;;17.55;;
58294;SDS011;45705;55.592;37.460;2023-11-25T11:36:04;41.75;;;19.15;;
58294;SDS011;45705;55.592;37.460;2023-11-25T11:38:30;39.35;;;19.88;;
58294;SDS011;45705;55.592;37.460;2023-11-25T11:46:31;40.97;;;19.20;;
58294;SDS011;45705;55.592;37.460;2023-11-25T11:49:08;37.70;;;18.67;;
58294;SDS011;45705;55.592;37.460;2023-11-25T11:51:36;45.03;;;20.60;;
58294;SDS011;45705;55.592;37.460;2023-11-25T11:56:59;39.03;;;18.40;;
58294;SDS011;45705;55.592;37.460;2023-11-25T12:02:28;37.25;;;19.65;;
58294;SDS011;45705;55.592;37.460;2023-11-25T12:04:57;44.40;;;22.65;;
58294;SDS011;45705;55.592;37.460;2023-11-25T12:07:24;37.08;;;18.33;;
58294;SDS011;45705;55.592;37.460;2023-11-25T12:09:52;43.33;;;19.00;;
58294;SDS011;45705;55.592;37.460;2023-11-25T12:12:19;37.67;;;18.77;;
58294;SDS011;45705;55.592;37.460;2023-11-25T12:14:45;38.75;;;19.38;;
58294;SDS011;45705;55.592;37.460;2023-11-25T12:17:12;37.17;;;19.10;;
58294;SDS011;45705;55.592;37.460;2023-11-25T12:19:39;35.08;;;17.33;;
58294;SDS011;45705;55.592;37.460;2023-11-25T12:22:07;34.05;;;17.92;;
58294;SDS011;45705;55.592;37.460;2023-11-25T12:24:34;29.90;;;15.95;;
58294;SDS011;45705;55.592;37.460;2023-11-25T12:27:00;39.45;;;18.30;;
58294;SDS011;45705;55.592;37.460;2023-11-25T12:29:34;31.75;;;17.35;;
58294;SDS011;45705;55.592;37.460;2023-11-25T12:32:00;35.05;;;18.08;;
58294;SDS011;45705;55.592;37.460;2023-11-25T12:34:29;33.22;;;16.98;;
58294;SDS011;45705;55.592;37.460;2023-11-25T12:36:56;33.50;;;17.50;;
58294;SDS011;45705;55.592;37.460;2023-11-25T12:39:22;31.65;;;16.65;;
58294;SDS011;45705;55.592;37.460;2023-11-25T12:41:49;38.75;;;18.05;;
58294;SDS011;45705;55.592;37.460;2023-11-25T12:44:15;38.28;;;18.15;;
58294;SDS011;45705;55.592;37.460;2023-11-25T12:46:42;38.28;;;18.33;;
58294;SDS011;45705;55.592;37.460;2023-11-25T12:49:25;35.00;;;17.73;;
58294;SDS011;45705;55.592;37.460;2023-11-25T12:51:51;37.95;;;17.58;;
58294;SDS011;45705;55.592;37.460;2023-11-25T12:54:18;39.55;;;18.30;;
58294;SDS011;45705;55.592;37.460;2023-11-25T12:56:51;36.33;;;18.17;;
58294;SDS011;45705;55.592;37.460;2023-11-25T12:59:22;36.47;;;17.70;;
58294;SDS011;45705;55.592;37.460;2023-11-25T13:01:49;38.25;;;17.58;;
58294;SDS011;45705;55.592;37.460;2023-11-25T13:04:19;36.92;;;17.00;;
58294;SDS011;45705;55.592;37.460;2023-11-25T13:06:45;37.20;;;18.65;;
58294;SDS011;45705;55.592;37.460;2023-11-25T13:09:12;44.08;;;19.80;;
58294;SDS011;45705;55.592;37.460;2023-11-25T13:11:40;37.00;;;17.83;;
58294;SDS011;45705;55.592;37.460;2023-11-25T13:14:06;38.20;;;18.42;;
58294;SDS011;45705;55.592;37.460;2023-11-25T13:16:33;36.90;;;19.25;;
58294;SDS011;45705;55.592;37.460;2023-11-25T13:19:01;37.67;;;19.08;;
58294;SDS011;45705;55.592;37.460;2023-11-25T13:21:27;36.95;;;18.75;;
58294;SDS011;45705;55.592;37.460;2023-11-25T13:23:53;41.42;;;19.60;;
58294;SDS011;45705;55.592;37.460;2023-11-25T13:26:19;38.55;;;18.63;;
58294;SDS011;45705;55.592;37.460;2023-11-25T13:28:45;37.95;;;18.65;;
58294;SDS011;45705;55.592;37.460;2023-11-25T13:31:11;38.33;;;19.17;;
58294;SDS011;45705;55.592;37.460;2023-11-25T13:33:36;38.63;;;18.25;;
58294;SDS011;45705;55.592;37.460;2023-11-25T13:36:02;36.30;;;18.30;;
58294;SDS011;45705;55.592;37.460;2023-11-25T13:38:28;35.10;;;17.58;;
58294;SDS011;45705;55.592;37.460;2023-11-25T13:40:54;38.65;;;18.80;;
58294;SDS011;45705;55.592;37.460;2023-11-25T13:43:20;35.47;;;18.25;;
58294;SDS011;45705;55.592;37.460;2023-11-25T13:45:46;39.75;;;20.25;;
58294;SDS011;45705;55.592;37.460;2023-11-25T13:48:12;41.03;;;19.92;;
58294;SDS011;45705;55.592;37.460;2023-11-25T13:50:42;41.25;;;20.65;;
58294;SDS011;45705;55.592;37.460;2023-11-25T13:53:08;48.75;;;22.88;;
58294;SDS011;45705;55.592;37.460;2023-11-25T13:55:34;46.00;;;20.95;;
58294;SDS011;45705;55.592;37.460;2023-11-25T13:58:08;45.47;;;22.67;;
58294;SDS011;45705;55.592;37.460;2023-11-25T14:00:35;40.58;;;22.83;;
58294;SDS011;45705;55.592;37.460;2023-11-25T14:03:03;42.40;;;20.85;;
58294;SDS011;45705;55.592;37.460;2023-11-25T14:05:33;46.25;;;23.15;;
58294;SDS011;45705;55.592;37.460;2023-11-25T14:08:10;47.20;;;22.00;;
58294;SDS011;45705;55.592;37.460;2023-11-25T14:10:45;41.63;;;20.70;;
58294;SDS011;45705;55.592;37.460;2023-11-25T14:13:11;39.20;;;19.77;;
58294;SDS011;45705;55.592;37.460;2023-11-25T14:15:39;38.53;;;20.67;;
58294;SDS011;45705;55.592;37.460;2023-11-25T14:18:06;45.95;;;20.27;;
58294;SDS011;45705;55.592;37.460;2023-11-25T14:20:34;46.80;;;21.83;;
58294;SDS011;45705;55.592;37.460;2023-11-25T14:23:00;48.17;;;21.48;;
58294;SDS011;45705;55.592;37.460;2023-11-25T14:25:27;37.67;;;20.52;;
58294;SDS011;45705;55.592;37.460;2023-11-25T14:27:54;36.30;;;18.67;;
58294;SDS011;45705;55.592;37.460;2023-11-25T14:30:21;40.42;;;20.10;;
58294;SDS011;45705;55.592;37.460;2023-11-25T14:32:49;38.08;;;19.05;;
58294;SDS011;45705;55.592;37.460;2023-11-25T14:35:16;36.35;;;18.92;;